sensor_id;sensor_type;location;lat;lon;timestamp;P1;durP1;ratioP1;P2;durP2;ratioP2
32501;SDS011;18952;52.516;13.460;2023-06-14T00:04:27;5.05;;;2.75;;
32501;SDS011;18952;52.516;13.460;2023-06-14T00:06:54;4.93;;;3.03;;
32501;SDS011;18952;52.516;13.460;2023-06-14T00:09:21;4.85;;;3.00;;
32501;SDS011;18952;52.516;13.460;2023-06-14T00:11:48;5.03;;;3.10;;
32501;SDS011;18952;52.516;13.460;2023-06-14T00:14:15;6.18;;;2.92;;
32501;SDS011;18952;52.516;13.460;2023-06-14T00:16:42;5.53;;;3.35;;
32501;SDS011;18952;52.516;13.460;2023-06-14T00:19:09;5.90;;;3.10;;
32501;SDS011;18952;52.516;13.460;2023-06-14T00:21:36;6.70;;;3.00;;
32501;SDS011;18952;52.516;13.460;2023-06-14T00:24:04;6.32;;;3.05;;
32501;SDS011;18952;52.516;13.460;2023-06-14T00:26:31;9.75;;;3.15;;
32501;SDS011;18952;52.516;13.460;2023-06-14T00:28:58;6.70;;;3.38;;
32501;SDS011;18952;52.516;13.460;2023-06-14T00:31:25;8.20;;;3.17;;
32501;SDS011;18952;52.516;13.460;2023-06-14T00:33:51;6.93;;;3.30;;
32501;SDS011;18952;52.516;13.460;2023-06-14T00:36:18;4.15;;;2.95;;
32501;SDS011;18952;52.516;13.460;2023-06-14T00:38:45;3.40;;;3.10;;
32501;SDS011;18952;52.516;13.460;2023-06-14T00:41:12;12.32;;;3.50;;
32501;SDS011;18952;52.516;13.460;2023-06-14T00:43:38;5.35;;;3.17;;
32501;SDS011;18952;52.516;13.460;2023-06-14T00:46:05;7.47;;;4.15;;
32501;SDS011;18952;52.516;13.460;2023-06-14T00:48:32;9.32;;;3.80;;
32501;SDS011;18952;52.516;13.460;2023-06-14T00:50:59;5.78;;;3.63;;
32501;SDS011;18952;52.516;13.460;2023-06-14T00:53:26;4.80;;;3.40;;
32501;SDS011;18952;52.516;13.460;2023-06-14T00:55:53;5.07;;;3.55;;
32501;SDS011;18952;52.516;13.460;2023-06-14T00:58:21;7.57;;;4.05;;
32501;SDS011;18952;52.516;13.460;2023-06-14T01:00:48;9.02;;;3.95;;
32501;SDS011;18952;52.516;13.460;2023-06-14T01:03:15;7.32;;;3.95;;
32501;SDS011;18952;52.516;13.460;2023-06-14T01:05:42;5.03;;;4.03;;
32501;SDS011;18952;52.516;13.460;2023-06-14T01:08:20;10.02;;;4.20;;
32501;SDS011;18952;52.516;13.460;2023-06-14T01:13:37;8.68;;;4.20;;
32501;SDS011;18952;52.516;13.460;2023-06-14T01:16:07;5.97;;;4.63;;
32501;SDS011;18952;52.516;13.460;2023-06-14T01:18:34;6.38;;;4.80;;
32501;SDS011;18952;52.516;13.460;2023-06-14T01:21:02;11.52;;;4.82;;
32501;SDS011;18952;52.516;13.460;2023-06-14T01:23:29;11.93;;;4.60;;
32501;SDS011;18952;52.516;13.460;2023-06-14T01:25:55;7.03;;;4.35;;
32501;SDS011;18952;52.516;13.460;2023-06-14T01:28:22;7.47;;;4.57;;
32501;SDS011;18952;52.516;13.460;2023-06-14T01:30:51;8.50;;;4.35;;
32501;SDS011;18952;52.516;13.460;2023-06-14T01:33:20;9.98;;;4.20;;
32501;SDS011;18952;52.516;13.460;2023-06-14T01:35:52;4.70;;;4.10;;
32501;SDS011;18952;52.516;13.460;2023-06-14T01:38:21;5.88;;;4.25;;
32501;SDS011;18952;52.516;13.460;2023-06-14T01:40:50;7.15;;;4.75;;
32501;SDS011;18952;52.516;13.460;2023-06-14T01:43:20;5.72;;;4.60;;
32501;SDS011;18952;52.516;13.460;2023-06-14T01:45:48;8.80;;;4.75;;
32501;SDS011;18952;52.516;13.460;2023-06-14T01:48:17;12.75;;;4.82;;
32501;SDS011;18952;52.516;13.460;2023-06-14T01:50:45;8.98;;;5.03;;
32501;SDS011;18952;52.516;13.460;2023-06-14T01:53:13;5.68;;;4.90;;
32501;SDS011;18952;52.516;13.460;2023-06-14T01:55:40;10.27;;;4.60;;
32501;SDS011;18952;52.516;13.460;2023-06-14T01:58:07;8.57;;;4.78;;
32501;SDS011;18952;52.516;13.460;2023-06-14T02:00:33;8.45;;;5.20;;
32501;SDS011;18952;52.516;13.460;2023-06-14T02:03:00;8.90;;;4.90;;
32501;SDS011;18952;52.516;13.460;2023-06-14T02:05:27;11.07;;;5.35;;
32501;SDS011;18952;52.516;13.460;2023-06-14T02:07:54;11.02;;;4.80;;
32501;SDS011;18952;52.516;13.460;2023-06-14T02:10:21;13.82;;;5.57;;
32501;SDS011;18952;52.516;13.460;2023-06-14T02:12:48;7.47;;;5.50;;
32501;SDS011;18952;52.516;13.460;2023-06-14T02:15:14;11.30;;;5.18;;
32501;SDS011;18952;52.516;13.460;2023-06-14T02:17:41;7.75;;;4.88;;
32501;SDS011;18952;52.516;13.460;2023-06-14T02:20:11;6.18;;;4.88;;
32501;SDS011;18952;52.516;13.460;2023-06-14T02:22:39;8.15;;;5.32;;
32501;SDS011;18952;52.516;13.460;2023-06-14T02:25:06;7.10;;;5.60;;
32501;SDS011;18952;52.516;13.460;2023-06-14T02:27:33;6.80;;;5.45;;
32501;SDS011;18952;52.516;13.460;2023-06-14T02:30:00;9.23;;;5.43;;
32501;SDS011;18952;52.516;13.460;2023-06-14T02:39:05;11.20;;;5.13;;
32501;SDS011;18952;52.516;13.460;2023-06-14T02:41:32;8.15;;;5.47;;
32501;SDS011;18952;52.516;13.460;2023-06-14T02:43:58;11.98;;;5.50;;
32501;SDS011;18952;52.516;13.460;2023-06-14T02:46:25;9.48;;;6.20;;
32501;SDS011;18952;52.516;13.460;2023-06-14T02:48:52;8.10;;;5.90;;
32501;SDS011;18952;52.516;13.460;2023-06-14T02:51:19;10.40;;;6.10;;
32501;SDS011;18952;52.516;13.460;2023-06-14T02:53:46;11.52;;;6.20;;
32501;SDS011;18952;52.516;13.460;2023-06-14T02:56:13;8.43;;;5.43;;
32501;SDS011;18952;52.516;13.460;2023-06-14T02:58:39;12.45;;;6.35;;
32501;SDS011;18952;52.516;13.460;2023-06-14T03:01:06;10.02;;;5.78;;
32501;SDS011;18952;52.516;13.460;2023-06-14T03:03:33;8.13;;;6.10;;
32501;SDS011;18952;52.516;13.460;2023-06-14T03:06:00;8.90;;;5.72;;
32501;SDS011;18952;52.516;13.460;2023-06-14T03:08:27;11.50;;;6.00;;
32501;SDS011;18952;52.516;13.460;2023-06-14T03:10:53;8.07;;;6.05;;
32501;SDS011;18952;52.516;13.460;2023-06-14T03:13:20;9.05;;;6.20;;
32501;SDS011;18952;52.516;13.460;2023-06-14T03:15:47;10.02;;;5.95;;
32501;SDS011;18952;52.516;13.460;2023-06-14T03:18:14;7.82;;;6.25;;
32501;SDS011;18952;52.516;13.460;2023-06-14T03:20:41;8.98;;;6.50;;
32501;SDS011;18952;52.516;13.460;2023-06-14T03:23:08;8.88;;;6.55;;
32501;SDS011;18952;52.516;13.460;2023-06-14T03:25:35;10.13;;;6.60;;
32501;SDS011;18952;52.516;13.460;2023-06-14T03:28:02;7.85;;;5.80;;
32501;SDS011;18952;52.516;13.460;2023-06-14T03:30:29;8.13;;;6.20;;
32501;SDS011;18952;52.516;13.460;2023-06-14T03:32:57;9.75;;;6.70;;
32501;SDS011;18952;52.516;13.460;2023-06-14T03:35:24;10.98;;;6.72;;
32501;SDS011;18952;52.516;13.460;2023-06-14T03:37:51;10.13;;;6.65;;
32501;SDS011;18952;52.516;13.460;2023-06-14T03:40:18;13.25;;;6.32;;
32501;SDS011;18952;52.516;13.460;2023-06-14T03:42:45;13.15;;;8.13;;
32501;SDS011;18952;52.516;13.460;2023-06-14T03:45:12;9.07;;;7.00;;
32501;SDS011;18952;52.516;13.460;2023-06-14T03:47:39;18.00;;;6.50;;
32501;SDS011;18952;52.516;13.460;2023-06-14T03:50:06;11.32;;;5.82;;
32501;SDS011;18952;52.516;13.460;2023-06-14T03:52:33;12.10;;;7.03;;
32501;SDS011;18952;52.516;13.460;2023-06-14T03:54:59;14.60;;;6.75;;
32501;SDS011;18952;52.516;13.460;2023-06-14T03:57:29;11.10;;;6.93;;
32501;SDS011;18952;52.516;13.460;2023-06-14T03:59:56;10.32;;;6.80;;
32501;SDS011;18952;52.516;13.460;2023-06-14T04:02:23;10.38;;;6.90;;
32501;SDS011;18952;52.516;13.460;2023-06-14T04:04:50;11.25;;;6.75;;
32501;SDS011;18952;52.516;13.460;2023-06-14T04:07:17;15.27;;;7.20;;
32501;SDS011;18952;52.516;13.460;2023-06-14T04:09:43;9.82;;;6.85;;
32501;SDS011;18952;52.516;13.460;2023-06-14T04:12:10;17.10;;;7.13;;
32501;SDS011;18952;52.516;13.460;2023-06-14T04:14:37;8.82;;;6.60;;
32501;SDS011;18952;52.516;13.460;2023-06-14T04:17:05;12.38;;;7.10;;
32501;SDS011;18952;52.516;13.460;2023-06-14T04:19:32;13.88;;;7.53;;
32501;SDS011;18952;52.516;13.460;2023-06-14T04:21:59;10.80;;;7.05;;
32501;SDS011;18952;52.516;13.460;2023-06-14T04:24:26;13.73;;;7.82;;
32501;SDS011;18952;52.516;13.460;2023-06-14T04:26:53;12.82;;;7.45;;
32501;SDS011;18952;52.516;13.460;2023-06-14T04:29:20;14.65;;;7.10;;
32501;SDS011;18952;52.516;13.460;2023-06-14T04:31:46;12.15;;;7.68;;
32501;SDS011;18952;52.516;13.460;2023-06-14T04:34:13;13.80;;;7.57;;
32501;SDS011;18952;52.516;13.460;2023-06-14T04:36:40;22.73;;;7.30;;
32501;SDS011;18952;52.516;13.460;2023-06-14T04:39:07;10.88;;;6.93;;
32501;SDS011;18952;52.516;13.460;2023-06-14T04:41:34;18.75;;;7.57;;
32501;SDS011;18952;52.516;13.460;2023-06-14T04:44:00;19.67;;;7.53;;
32501;SDS011;18952;52.516;13.460;2023-06-14T04:46:30;16.17;;;7.40;;
32501;SDS011;18952;52.516;13.460;2023-06-14T04:48:56;14.80;;;7.55;;
32501;SDS011;18952;52.516;13.460;2023-06-14T04:51:23;16.63;;;7.20;;
32501;SDS011;18952;52.516;13.460;2023-06-14T04:53:50;17.45;;;7.72;;
32501;SDS011;18952;52.516;13.460;2023-06-14T04:56:17;20.73;;;8.15;;
32501;SDS011;18952;52.516;13.460;2023-06-14T04:58:43;21.15;;;8.27;;
32501;SDS011;18952;52.516;13.460;2023-06-14T05:01:10;23.98;;;8.30;;
32501;SDS011;18952;52.516;13.460;2023-06-14T05:03:37;15.10;;;7.65;;
32501;SDS011;18952;52.516;13.460;2023-06-14T05:06:04;21.05;;;7.05;;
32501;SDS011;18952;52.516;13.460;2023-06-14T05:08:31;21.52;;;7.30;;
32501;SDS011;18952;52.516;13.460;2023-06-14T05:10:57;14.00;;;7.20;;
32501;SDS011;18952;52.516;13.460;2023-06-14T05:13:24;15.55;;;7.60;;
32501;SDS011;18952;52.516;13.460;2023-06-14T05:15:51;18.60;;;7.78;;
32501;SDS011;18952;52.516;13.460;2023-06-14T05:18:18;25.80;;;8.90;;
32501;SDS011;18952;52.516;13.460;2023-06-14T05:20:44;10.25;;;7.05;;
32501;SDS011;18952;52.516;13.460;2023-06-14T05:23:11;24.42;;;7.63;;
32501;SDS011;18952;52.516;13.460;2023-06-14T05:25:38;16.27;;;7.57;;
32501;SDS011;18952;52.516;13.460;2023-06-14T05:28:05;13.23;;;6.78;;
32501;SDS011;18952;52.516;13.460;2023-06-14T05:30:32;20.10;;;8.27;;
32501;SDS011;18952;52.516;13.460;2023-06-14T05:32:58;15.15;;;7.65;;
32501;SDS011;18952;52.516;13.460;2023-06-14T05:35:25;12.55;;;6.90;;
32501;SDS011;18952;52.516;13.460;2023-06-14T05:37:52;17.80;;;7.15;;
32501;SDS011;18952;52.516;13.460;2023-06-14T05:40:19;11.93;;;7.00;;
32501;SDS011;18952;52.516;13.460;2023-06-14T05:42:46;11.70;;;7.15;;
32501;SDS011;18952;52.516;13.460;2023-06-14T05:45:13;11.23;;;6.70;;
32501;SDS011;18952;52.516;13.460;2023-06-14T05:47:40;18.48;;;8.43;;
32501;SDS011;18952;52.516;13.460;2023-06-14T05:50:07;18.85;;;7.20;;
32501;SDS011;18952;52.516;13.460;2023-06-14T05:52:34;12.05;;;7.03;;
32501;SDS011;18952;52.516;13.460;2023-06-14T05:55:01;14.45;;;6.85;;
32501;SDS011;18952;52.516;13.460;2023-06-14T05:57:28;9.68;;;6.70;;
32501;SDS011;18952;52.516;13.460;2023-06-14T05:59:55;12.48;;;6.60;;
32501;SDS011;18952;52.516;13.460;2023-06-14T06:02:22;11.10;;;6.68;;
32501;SDS011;18952;52.516;13.460;2023-06-14T06:04:49;12.85;;;7.25;;
32501;SDS011;18952;52.516;13.460;2023-06-14T06:07:16;7.50;;;6.43;;
32501;SDS011;18952;52.516;13.460;2023-06-14T06:09:43;11.20;;;6.65;;
32501;SDS011;18952;52.516;13.460;2023-06-14T06:12:10;15.20;;;6.55;;
32501;SDS011;18952;52.516;13.460;2023-06-14T06:14:36;9.77;;;6.40;;
32501;SDS011;18952;52.516;13.460;2023-06-14T06:17:03;14.07;;;9.70;;
32501;SDS011;18952;52.516;13.460;2023-06-14T06:19:30;10.70;;;7.15;;
32501;SDS011;18952;52.516;13.460;2023-06-14T06:21:57;16.77;;;6.47;;
32501;SDS011;18952;52.516;13.460;2023-06-14T06:24:24;16.83;;;6.78;;
32501;SDS011;18952;52.516;13.460;2023-06-14T06:26:51;16.27;;;6.38;;
32501;SDS011;18952;52.516;13.460;2023-06-14T06:29:17;18.83;;;6.93;;
32501;SDS011;18952;52.516;13.460;2023-06-14T06:31:44;15.73;;;6.60;;
32501;SDS011;18952;52.516;13.460;2023-06-14T06:34:13;18.20;;;6.30;;
32501;SDS011;18952;52.516;13.460;2023-06-14T06:36:39;15.55;;;6.15;;
32501;SDS011;18952;52.516;13.460;2023-06-14T06:39:06;10.65;;;6.10;;
32501;SDS011;18952;52.516;13.460;2023-06-14T06:41:33;10.60;;;6.43;;
32501;SDS011;18952;52.516;13.460;2023-06-14T06:43:59;10.38;;;6.13;;
32501;SDS011;18952;52.516;13.460;2023-06-14T06:46:26;11.75;;;6.95;;
32501;SDS011;18952;52.516;13.460;2023-06-14T06:48:53;14.57;;;6.65;;
32501;SDS011;18952;52.516;13.460;2023-06-14T06:51:20;14.65;;;5.75;;
32501;SDS011;18952;52.516;13.460;2023-06-14T06:53:51;10.00;;;6.93;;
32501;SDS011;18952;52.516;13.460;2023-06-14T06:56:19;12.23;;;6.00;;
32501;SDS011;18952;52.516;13.460;2023-06-14T06:58:47;15.38;;;6.53;;
32501;SDS011;18952;52.516;13.460;2023-06-14T07:01:14;13.10;;;6.03;;
32501;SDS011;18952;52.516;13.460;2023-06-14T07:03:40;11.40;;;6.03;;
32501;SDS011;18952;52.516;13.460;2023-06-14T07:06:07;14.43;;;6.20;;
32501;SDS011;18952;52.516;13.460;2023-06-14T07:08:35;11.32;;;6.20;;
32501;SDS011;18952;52.516;13.460;2023-06-14T07:11:02;13.13;;;6.28;;
32501;SDS011;18952;52.516;13.460;2023-06-14T07:13:29;15.32;;;6.13;;
32501;SDS011;18952;52.516;13.460;2023-06-14T07:15:57;15.32;;;6.55;;
32501;SDS011;18952;52.516;13.460;2023-06-14T07:18:25;15.10;;;6.22;;
32501;SDS011;18952;52.516;13.460;2023-06-14T07:20:53;10.23;;;5.97;;
32501;SDS011;18952;52.516;13.460;2023-06-14T07:23:20;8.50;;;6.38;;
32501;SDS011;18952;52.516;13.460;2023-06-14T07:25:47;10.05;;;7.15;;
32501;SDS011;18952;52.516;13.460;2023-06-14T07:28:14;14.35;;;6.22;;
32501;SDS011;18952;52.516;13.460;2023-06-14T07:30:42;18.13;;;5.75;;
32501;SDS011;18952;52.516;13.460;2023-06-14T07:33:09;21.13;;;7.03;;
32501;SDS011;18952;52.516;13.460;2023-06-14T07:35:35;19.65;;;6.78;;
32501;SDS011;18952;52.516;13.460;2023-06-14T07:38:02;10.68;;;5.80;;
32501;SDS011;18952;52.516;13.460;2023-06-14T07:40:29;9.05;;;6.18;;
32501;SDS011;18952;52.516;13.460;2023-06-14T07:42:56;10.82;;;6.32;;
32501;SDS011;18952;52.516;13.460;2023-06-14T07:45:22;14.27;;;6.65;;
32501;SDS011;18952;52.516;13.460;2023-06-14T07:47:49;9.05;;;6.13;;
32501;SDS011;18952;52.516;13.460;2023-06-14T07:50:16;17.10;;;6.28;;
32501;SDS011;18952;52.516;13.460;2023-06-14T07:52:43;21.27;;;6.50;;
32501;SDS011;18952;52.516;13.460;2023-06-14T07:55:12;16.15;;;6.25;;
32501;SDS011;18952;52.516;13.460;2023-06-14T07:57:39;10.23;;;5.53;;
32501;SDS011;18952;52.516;13.460;2023-06-14T08:00:06;16.33;;;6.20;;
32501;SDS011;18952;52.516;13.460;2023-06-14T08:02:33;20.88;;;12.10;;
32501;SDS011;18952;52.516;13.460;2023-06-14T08:05:00;10.57;;;5.97;;
32501;SDS011;18952;52.516;13.460;2023-06-14T08:07:27;12.68;;;5.90;;
32501;SDS011;18952;52.516;13.460;2023-06-14T08:09:53;12.60;;;5.55;;
32501;SDS011;18952;52.516;13.460;2023-06-14T08:12:20;10.93;;;5.00;;
32501;SDS011;18952;52.516;13.460;2023-06-14T08:14:47;15.98;;;6.93;;
32501;SDS011;18952;52.516;13.460;2023-06-14T08:17:26;12.88;;;6.20;;
32501;SDS011;18952;52.516;13.460;2023-06-14T08:19:53;10.73;;;5.60;;
32501;SDS011;18952;52.516;13.460;2023-06-14T08:22:20;9.52;;;5.03;;
32501;SDS011;18952;52.516;13.460;2023-06-14T08:24:47;10.32;;;5.05;;
32501;SDS011;18952;52.516;13.460;2023-06-14T08:27:14;15.25;;;5.35;;
32501;SDS011;18952;52.516;13.460;2023-06-14T08:29:41;16.60;;;5.03;;
32501;SDS011;18952;52.516;13.460;2023-06-14T08:32:07;11.75;;;5.18;;
32501;SDS011;18952;52.516;13.460;2023-06-14T08:34:34;8.05;;;4.57;;
32501;SDS011;18952;52.516;13.460;2023-06-14T08:37:01;7.53;;;4.88;;
32501;SDS011;18952;52.516;13.460;2023-06-14T08:39:28;12.20;;;5.53;;
32501;SDS011;18952;52.516;13.460;2023-06-14T08:41:55;13.57;;;4.88;;
32501;SDS011;18952;52.516;13.460;2023-06-14T08:44:23;14.60;;;4.50;;
32501;SDS011;18952;52.516;13.460;2023-06-14T08:46:50;9.70;;;4.45;;
32501;SDS011;18952;52.516;13.460;2023-06-14T08:49:17;7.63;;;4.50;;
32501;SDS011;18952;52.516;13.460;2023-06-14T08:51:44;13.52;;;4.28;;
32501;SDS011;18952;52.516;13.460;2023-06-14T08:54:11;11.48;;;4.63;;
32501;SDS011;18952;52.516;13.460;2023-06-14T08:56:39;12.18;;;4.55;;
32501;SDS011;18952;52.516;13.460;2023-06-14T08:59:06;7.55;;;4.30;;
32501;SDS011;18952;52.516;13.460;2023-06-14T09:01:34;11.95;;;4.78;;
32501;SDS011;18952;52.516;13.460;2023-06-14T09:04:01;9.38;;;4.35;;
32501;SDS011;18952;52.516;13.460;2023-06-14T09:06:28;12.45;;;4.85;;
32501;SDS011;18952;52.516;13.460;2023-06-14T09:08:55;13.10;;;3.80;;
32501;SDS011;18952;52.516;13.460;2023-06-14T09:11:22;7.10;;;3.67;;
32501;SDS011;18952;52.516;13.460;2023-06-14T09:13:50;9.43;;;4.55;;
32501;SDS011;18952;52.516;13.460;2023-06-14T09:16:17;12.65;;;4.70;;
32501;SDS011;18952;52.516;13.460;2023-06-14T09:18:44;15.05;;;5.10;;
32501;SDS011;18952;52.516;13.460;2023-06-14T09:21:12;11.20;;;4.63;;
32501;SDS011;18952;52.516;13.460;2023-06-14T09:23:41;7.00;;;3.63;;
32501;SDS011;18952;52.516;13.460;2023-06-14T09:26:18;23.02;;;3.92;;
32501;SDS011;18952;52.516;13.460;2023-06-14T09:28:46;8.25;;;3.95;;
32501;SDS011;18952;52.516;13.460;2023-06-14T09:31:15;6.75;;;4.40;;
32501;SDS011;18952;52.516;13.460;2023-06-14T09:33:47;10.65;;;4.10;;
32501;SDS011;18952;52.516;13.460;2023-06-14T09:36:15;10.90;;;3.90;;
32501;SDS011;18952;52.516;13.460;2023-06-14T09:38:59;10.98;;;4.38;;
32501;SDS011;18952;52.516;13.460;2023-06-14T09:44:00;12.95;;;4.68;;
32501;SDS011;18952;52.516;13.460;2023-06-14T09:46:30;12.38;;;4.53;;
32501;SDS011;18952;52.516;13.460;2023-06-14T09:48:57;12.50;;;4.30;;
32501;SDS011;18952;52.516;13.460;2023-06-14T09:51:25;9.85;;;4.82;;
32501;SDS011;18952;52.516;13.460;2023-06-14T09:53:54;11.25;;;4.97;;
32501;SDS011;18952;52.516;13.460;2023-06-14T09:56:29;14.32;;;5.32;;
32501;SDS011;18952;52.516;13.460;2023-06-14T09:58:57;8.82;;;4.53;;
32501;SDS011;18952;52.516;13.460;2023-06-14T10:01:33;18.88;;;4.88;;
32501;SDS011;18952;52.516;13.460;2023-06-14T10:04:04;12.10;;;5.07;;
32501;SDS011;18952;52.516;13.460;2023-06-14T10:06:39;8.00;;;4.72;;
32501;SDS011;18952;52.516;13.460;2023-06-14T10:09:08;13.55;;;4.85;;
32501;SDS011;18952;52.516;13.460;2023-06-14T10:11:36;11.52;;;4.25;;
32501;SDS011;18952;52.516;13.460;2023-06-14T10:14:05;10.57;;;4.03;;
32501;SDS011;18952;52.516;13.460;2023-06-14T10:16:37;9.40;;;4.50;;
32501;SDS011;18952;52.516;13.460;2023-06-14T10:25:31;13.07;;;4.93;;
32501;SDS011;18952;52.516;13.460;2023-06-14T10:33:56;9.32;;;3.80;;
32501;SDS011;18952;52.516;13.460;2023-06-14T10:36:26;11.30;;;3.95;;
32501;SDS011;18952;52.516;13.460;2023-06-14T10:41:55;12.40;;;3.72;;
32501;SDS011;18952;52.516;13.460;2023-06-14T10:46:52;9.75;;;4.03;;
32501;SDS011;18952;52.516;13.460;2023-06-14T10:49:19;11.93;;;4.72;;
32501;SDS011;18952;52.516;13.460;2023-06-14T10:51:50;12.50;;;4.10;;
32501;SDS011;18952;52.516;13.460;2023-06-14T10:54:17;8.23;;;4.00;;
32501;SDS011;18952;52.516;13.460;2023-06-14T10:56:50;12.82;;;4.82;;
32501;SDS011;18952;52.516;13.460;2023-06-14T10:59:18;12.07;;;4.47;;
32501;SDS011;18952;52.516;13.460;2023-06-14T11:04:53;12.45;;;4.88;;
32501;SDS011;18952;52.516;13.460;2023-06-14T11:12:59;11.80;;;4.32;;
32501;SDS011;18952;52.516;13.460;2023-06-14T11:15:29;14.05;;;4.95;;
32501;SDS011;18952;52.516;13.460;2023-06-14T11:17:56;13.43;;;4.78;;
32501;SDS011;18952;52.516;13.460;2023-06-14T11:20:24;10.70;;;4.35;;
32501;SDS011;18952;52.516;13.460;2023-06-14T11:22:54;11.80;;;3.85;;
32501;SDS011;18952;52.516;13.460;2023-06-14T11:25:20;11.10;;;4.03;;
32501;SDS011;18952;52.516;13.460;2023-06-14T11:27:48;11.55;;;4.18;;
32501;SDS011;18952;52.516;13.460;2023-06-14T11:30:16;15.43;;;4.65;;
32501;SDS011;18952;52.516;13.460;2023-06-14T11:32:47;9.60;;;4.38;;
32501;SDS011;18952;52.516;13.460;2023-06-14T11:35:15;16.85;;;5.03;;
32501;SDS011;18952;52.516;13.460;2023-06-14T11:37:43;8.88;;;4.53;;
32501;SDS011;18952;52.516;13.460;2023-06-14T11:40:11;11.10;;;3.85;;
32501;SDS011;18952;52.516;13.460;2023-06-14T11:42:39;10.07;;;4.65;;
32501;SDS011;18952;52.516;13.460;2023-06-14T11:45:07;21.75;;;4.63;;
32501;SDS011;18952;52.516;13.460;2023-06-14T11:47:36;11.52;;;4.35;;
32501;SDS011;18952;52.516;13.460;2023-06-14T11:50:05;15.98;;;4.63;;
32501;SDS011;18952;52.516;13.460;2023-06-14T11:52:36;11.65;;;4.43;;
32501;SDS011;18952;52.516;13.460;2023-06-14T11:55:03;11.27;;;4.40;;
32501;SDS011;18952;52.516;13.460;2023-06-14T11:57:33;11.98;;;4.53;;
32501;SDS011;18952;52.516;13.460;2023-06-14T12:00:02;9.25;;;4.32;;
32501;SDS011;18952;52.516;13.460;2023-06-14T12:02:31;11.98;;;4.32;;
32501;SDS011;18952;52.516;13.460;2023-06-14T12:05:03;14.25;;;5.57;;
32501;SDS011;18952;52.516;13.460;2023-06-14T12:07:31;7.75;;;3.90;;
32501;SDS011;18952;52.516;13.460;2023-06-14T12:12:25;16.38;;;4.78;;
32501;SDS011;18952;52.516;13.460;2023-06-14T12:14:52;11.02;;;3.70;;
32501;SDS011;18952;52.516;13.460;2023-06-14T12:17:21;21.95;;;5.15;;
32501;SDS011;18952;52.516;13.460;2023-06-14T12:19:49;8.82;;;4.35;;
32501;SDS011;18952;52.516;13.460;2023-06-14T12:22:16;14.30;;;3.70;;
32501;SDS011;18952;52.516;13.460;2023-06-14T12:24:44;13.98;;;4.57;;
32501;SDS011;18952;52.516;13.460;2023-06-14T12:27:11;9.60;;;3.60;;
32501;SDS011;18952;52.516;13.460;2023-06-14T12:29:38;7.68;;;3.42;;
32501;SDS011;18952;52.516;13.460;2023-06-14T12:32:05;15.35;;;3.83;;
32501;SDS011;18952;52.516;13.460;2023-06-14T12:34:32;18.52;;;3.40;;
32501;SDS011;18952;52.516;13.460;2023-06-14T12:36:59;12.80;;;3.70;;
32501;SDS011;18952;52.516;13.460;2023-06-14T12:39:25;14.57;;;3.40;;
32501;SDS011;18952;52.516;13.460;2023-06-14T12:41:52;11.07;;;3.25;;
32501;SDS011;18952;52.516;13.460;2023-06-14T12:44:19;10.25;;;3.20;;
32501;SDS011;18952;52.516;13.460;2023-06-14T12:46:46;8.32;;;3.17;;
32501;SDS011;18952;52.516;13.460;2023-06-14T12:49:13;5.28;;;3.30;;
32501;SDS011;18952;52.516;13.460;2023-06-14T12:51:40;12.80;;;3.40;;
32501;SDS011;18952;52.516;13.460;2023-06-14T12:54:07;17.98;;;3.60;;
32501;SDS011;18952;52.516;13.460;2023-06-14T12:56:34;14.93;;;3.25;;
32501;SDS011;18952;52.516;13.460;2023-06-14T12:59:01;10.43;;;2.92;;
32501;SDS011;18952;52.516;13.460;2023-06-14T13:01:28;13.73;;;3.40;;
32501;SDS011;18952;52.516;13.460;2023-06-14T13:03:55;8.13;;;3.47;;
32501;SDS011;18952;52.516;13.460;2023-06-14T13:06:22;7.97;;;3.30;;
32501;SDS011;18952;52.516;13.460;2023-06-14T13:08:49;13.02;;;3.63;;
32501;SDS011;18952;52.516;13.460;2023-06-14T13:11:16;11.55;;;3.38;;
32501;SDS011;18952;52.516;13.460;2023-06-14T13:13:43;9.57;;;3.78;;
32501;SDS011;18952;52.516;13.460;2023-06-14T13:16:09;5.78;;;3.55;;
32501;SDS011;18952;52.516;13.460;2023-06-14T13:18:36;9.48;;;3.50;;
32501;SDS011;18952;52.516;13.460;2023-06-14T13:21:03;12.50;;;3.60;;
32501;SDS011;18952;52.516;13.460;2023-06-14T13:23:30;9.18;;;3.38;;
32501;SDS011;18952;52.516;13.460;2023-06-14T13:25:57;8.35;;;3.03;;
32501;SDS011;18952;52.516;13.460;2023-06-14T13:28:25;12.05;;;3.28;;
32501;SDS011;18952;52.516;13.460;2023-06-14T13:30:51;7.85;;;3.03;;
32501;SDS011;18952;52.516;13.460;2023-06-14T13:33:18;12.43;;;3.28;;
32501;SDS011;18952;52.516;13.460;2023-06-14T13:35:45;9.13;;;3.05;;
32501;SDS011;18952;52.516;13.460;2023-06-14T13:38:12;6.85;;;3.20;;
32501;SDS011;18952;52.516;13.460;2023-06-14T13:40:39;7.53;;;3.10;;
32501;SDS011;18952;52.516;13.460;2023-06-14T13:43:06;11.77;;;3.42;;
32501;SDS011;18952;52.516;13.460;2023-06-14T13:45:34;6.38;;;3.15;;
32501;SDS011;18952;52.516;13.460;2023-06-14T13:48:18;5.93;;;3.20;;
32501;SDS011;18952;52.516;13.460;2023-06-14T13:51:02;6.32;;;3.15;;
32501;SDS011;18952;52.516;13.460;2023-06-14T13:53:50;7.50;;;3.40;;
32501;SDS011;18952;52.516;13.460;2023-06-14T13:56:34;8.20;;;3.03;;
32501;SDS011;18952;52.516;13.460;2023-06-14T13:59:18;8.35;;;3.13;;
32501;SDS011;18952;52.516;13.460;2023-06-14T14:02:02;9.40;;;3.50;;
32501;SDS011;18952;52.516;13.460;2023-06-14T14:04:46;7.05;;;3.75;;
32501;SDS011;18952;52.516;13.460;2023-06-14T14:07:31;10.77;;;3.80;;
32501;SDS011;18952;52.516;13.460;2023-06-14T14:10:15;7.18;;;3.55;;
32501;SDS011;18952;52.516;13.460;2023-06-14T14:12:59;8.75;;;3.63;;
32501;SDS011;18952;52.516;13.460;2023-06-14T14:15:43;5.60;;;3.40;;
32501;SDS011;18952;52.516;13.460;2023-06-14T14:18:27;11.30;;;3.28;;
32501;SDS011;18952;52.516;13.460;2023-06-14T14:21:12;14.25;;;3.75;;
32501;SDS011;18952;52.516;13.460;2023-06-14T14:23:56;11.07;;;4.15;;
32501;SDS011;18952;52.516;13.460;2023-06-14T14:26:42;8.20;;;3.47;;
32501;SDS011;18952;52.516;13.460;2023-06-14T14:29:26;8.02;;;3.80;;
32501;SDS011;18952;52.516;13.460;2023-06-14T14:31:53;7.93;;;3.83;;
32501;SDS011;18952;52.516;13.460;2023-06-14T14:34:21;14.77;;;3.92;;
32501;SDS011;18952;52.516;13.460;2023-06-14T14:36:48;7.15;;;3.47;;
32501;SDS011;18952;52.516;13.460;2023-06-14T14:39:15;9.65;;;3.83;;
32501;SDS011;18952;52.516;13.460;2023-06-14T14:41:41;7.80;;;3.58;;
32501;SDS011;18952;52.516;13.460;2023-06-14T14:44:08;10.15;;;3.40;;
32501;SDS011;18952;52.516;13.460;2023-06-14T14:46:35;7.03;;;3.67;;
32501;SDS011;18952;52.516;13.460;2023-06-14T14:49:02;12.40;;;3.75;;
32501;SDS011;18952;52.516;13.460;2023-06-14T14:51:29;7.70;;;3.72;;
32501;SDS011;18952;52.516;13.460;2023-06-14T14:53:56;12.50;;;3.42;;
32501;SDS011;18952;52.516;13.460;2023-06-14T14:56:22;12.52;;;3.50;;
32501;SDS011;18952;52.516;13.460;2023-06-14T14:58:49;11.90;;;4.03;;
32501;SDS011;18952;52.516;13.460;2023-06-14T15:01:16;18.90;;;4.70;;
32501;SDS011;18952;52.516;13.460;2023-06-14T15:03:43;5.82;;;3.40;;
32501;SDS011;18952;52.516;13.460;2023-06-14T15:06:25;13.15;;;3.80;;
32501;SDS011;18952;52.516;13.460;2023-06-14T15:08:54;7.15;;;3.47;;
32501;SDS011;18952;52.516;13.460;2023-06-14T15:11:21;11.85;;;3.42;;
32501;SDS011;18952;52.516;13.460;2023-06-14T15:13:47;13.27;;;3.65;;
32501;SDS011;18952;52.516;13.460;2023-06-14T15:16:15;8.05;;;3.70;;